createdAt,value
2018-09-08T00:02:00.147Z,86.60
2018-09-08T00:04:28.933Z,87.48
2018-09-08T00:07:02.856Z,86.74
2018-09-08T00:09:31.628Z,88.09
2018-09-08T00:12:00.403Z,87.52
2018-09-08T00:14:29.183Z,86.80
2018-09-08T00:17:03.263Z,86.85
2018-09-08T00:19:37.269Z,86.93
2018-09-08T00:22:11.298Z,86.59
2018-09-08T00:24:45.272Z,86.87
2018-09-08T00:27:13.082Z,86.95
2018-09-08T00:29:47.003Z,86.83
2018-09-08T00:32:15.907Z,87.63
2018-09-08T00:34:44.700Z,89.12
2018-09-08T00:37:13.485Z,90.09
2018-09-08T00:39:43.531Z,90.04
2018-09-08T00:42:12.749Z,88.06
2018-09-08T00:44:41.548Z,88.41
2018-09-08T00:47:10.317Z,87.59
2018-09-08T00:49:39.249Z,86.99
2018-09-08T00:52:08.280Z,89.28
2018-09-08T00:54:37.053Z,90.05
2018-09-08T00:57:05.802Z,89.97
2018-09-08T00:59:34.588Z,89.90
2018-09-08T01:02:03.365Z,90.67
2018-09-08T01:04:32.191Z,91.21
2018-09-08T01:07:01.249Z,89.87
2018-09-08T01:09:30.094Z,89.63
2018-09-08T01:11:58.989Z,89.66
2018-09-08T01:14:27.748Z,89.50
2018-09-08T01:16:56.506Z,89.39
2018-09-08T01:19:25.260Z,89.71
2018-09-08T01:21:54.035Z,89.21
2018-09-08T01:24:22.860Z,89.30
2018-09-08T01:26:51.677Z,90.36
2018-09-08T01:29:20.448Z,90.54
2018-09-08T01:31:49.347Z,90.14
2018-09-08T01:34:18.097Z,89.70
2018-09-08T01:36:46.876Z,89.49
2018-09-08T01:39:15.757Z,89.82
2018-09-08T01:41:44.524Z,89.67
2018-09-08T01:44:13.272Z,89.22
2018-09-08T01:46:42.019Z,89.54
2018-09-08T01:49:10.765Z,89.07
2018-09-08T01:51:39.520Z,89.75
2018-09-08T01:54:08.743Z,90.21
2018-09-08T01:56:37.576Z,90.55
2018-09-08T01:59:06.503Z,91.45
2018-09-08T02:01:35.310Z,91.74
2018-09-08T02:04:04.216Z,91.46
2018-09-08T02:06:33.003Z,91.93
2018-09-08T02:09:01.828Z,91.55
2018-09-08T02:11:30.588Z,90.62
2018-09-08T02:13:59.358Z,90.37
2018-09-08T02:16:28.145Z,91.12
2018-09-08T02:18:56.951Z,91.17
2018-09-08T02:21:25.707Z,90.63
2018-09-08T02:23:54.485Z,90.73
2018-09-08T02:26:23.380Z,91.72
2018-09-08T02:28:52.460Z,92.36
2018-09-08T02:31:21.191Z,91.78
2018-09-08T02:33:50.041Z,92.07
2018-09-08T02:36:18.801Z,92.13
2018-09-08T02:38:47.616Z,92.01
2018-09-08T02:41:16.379Z,92.29
2018-09-08T02:43:45.203Z,93.09
2018-09-08T02:46:13.945Z,92.98
2018-09-08T02:48:42.785Z,93.58
2018-09-08T02:51:10.174Z,92.69
2018-09-08T02:53:37.579Z,92.49
2018-09-08T02:56:04.976Z,92.52
2018-09-08T02:58:32.456Z,92.55
2018-09-08T03:00:59.881Z,93.07
2018-09-08T03:03:27.263Z,93.61
2018-09-08T03:05:54.669Z,95.46
2018-09-08T03:08:22.056Z,95.86
2018-09-08T03:10:49.441Z,96.06
2018-09-08T03:13:16.836Z,95.57
2018-09-08T03:15:44.224Z,95.70
2018-09-08T03:20:45.211Z,96.14
2018-09-08T03:23:12.602Z,96.08
2018-09-08T03:25:40.009Z,96.26
2018-09-08T03:28:07.463Z,96.56
2018-09-08T03:30:34.975Z,96.56
2018-09-08T03:33:02.529Z,96.42
2018-09-08T03:35:29.936Z,97.15
2018-09-08T03:37:57.337Z,96.86
2018-09-08T03:40:24.826Z,97.00
2018-09-08T03:42:52.280Z,97.11
2018-09-08T03:45:19.747Z,97.15
2018-09-08T03:47:47.151Z,96.96
2018-09-08T03:50:14.593Z,97.30
2018-09-08T03:52:41.988Z,96.77
2018-09-08T03:55:09.373Z,96.99
2018-09-08T03:57:36.855Z,97.06
2018-09-08T04:00:04.325Z,97.26
2018-09-08T04:02:31.704Z,97.77
2018-09-08T04:05:00.529Z,97.17
2018-09-08T04:07:29.288Z,97.68
2018-09-08T04:09:58.163Z,98.20
2018-09-08T04:12:26.911Z,98.34
2018-09-08T04:14:55.684Z,98.71
2018-09-08T04:17:24.428Z,99.16
2018-09-08T04:19:53.348Z,99.37
2018-09-08T04:22:26.245Z,99.47
2018-09-08T04:24:55.022Z,99.65
2018-09-08T04:27:23.820Z,99.43
2018-09-08T04:29:52.568Z,99.42
2018-09-08T04:32:21.425Z,99.50
2018-09-08T04:34:50.252Z,100.00
2018-09-08T04:37:19.024Z,100.00
2018-09-08T04:39:47.910Z,99.94
2018-09-08T04:42:16.724Z,100.00
2018-09-08T04:44:45.537Z,100.00
2018-09-08T04:47:14.298Z,99.54
2018-09-08T04:49:43.083Z,99.70
2018-09-08T04:52:11.856Z,100.00
2018-09-08T04:54:40.729Z,100.00
2018-09-08T04:57:09.480Z,99.39
2018-09-08T04:59:38.254Z,99.79
2018-09-08T05:02:07.043Z,99.51
2018-09-08T05:04:35.924Z,99.66
2018-09-08T05:07:04.780Z,99.61
2018-09-08T05:09:33.525Z,99.96
2018-09-08T05:12:02.748Z,99.75
2018-09-08T05:14:31.567Z,100.00
2018-09-08T05:17:00.381Z,100.00
2018-09-08T05:19:29.113Z,99.85
2018-09-08T05:21:57.958Z,99.84
2018-09-08T05:24:26.809Z,100.00
2018-09-08T05:26:55.565Z,99.56
2018-09-08T05:29:24.306Z,99.44
2018-09-08T05:31:53.170Z,100.00
2018-09-08T05:34:22.040Z,100.00
2018-09-08T05:36:50.799Z,100.00
2018-09-08T05:39:19.545Z,100.00
2018-09-08T05:41:48.299Z,100.00
2018-09-08T05:44:17.064Z,100.00
2018-09-08T05:46:46.016Z,100.00
2018-09-08T05:49:14.913Z,100.00
2018-09-08T05:51:43.723Z,100.00
2018-09-08T05:54:12.671Z,100.00
2018-09-08T05:56:41.453Z,99.99
2018-09-08T05:59:10.267Z,100.00
2018-09-08T06:01:39.036Z,99.46
2018-09-08T06:04:08.100Z,99.76
2018-09-08T06:06:36.945Z,99.45
2018-09-08T06:09:07.504Z,99.27
2018-09-08T06:11:36.285Z,98.46
2018-09-08T06:14:05.156Z,98.27
2018-09-08T06:16:34.132Z,98.05
2018-09-08T06:19:03.011Z,97.39
2018-09-08T06:21:32.195Z,97.69
2018-09-08T06:24:00.962Z,97.59
2018-09-08T06:26:29.723Z,97.02
2018-09-08T06:28:58.480Z,96.30
2018-09-08T06:31:27.240Z,96.70
2018-09-08T06:33:56.059Z,96.74
2018-09-08T06:36:24.800Z,96.07
2018-09-08T06:38:55.011Z,95.41
2018-09-08T06:41:23.773Z,95.13
2018-09-08T06:43:52.713Z,94.43
2018-09-08T06:46:21.495Z,92.81
2018-09-08T06:48:50.256Z,90.77
2018-09-08T06:51:19.033Z,85.06
2018-09-08T06:53:47.784Z,79.24
2018-09-08T06:56:16.524Z,72.34
2018-09-08T06:58:45.319Z,70.62
2018-09-08T07:01:14.126Z,67.36
2018-09-08T07:03:42.988Z,64.78
2018-09-08T07:06:11.795Z,61.52
2018-09-08T07:08:40.564Z,55.96
2018-09-08T07:11:09.421Z,55.94
2018-09-08T07:13:38.332Z,55.92
2018-09-08T07:16:07.472Z,57.62
2018-09-08T07:18:36.251Z,57.64
2018-09-08T07:21:05.055Z,53.77
2018-09-08T07:23:33.884Z,51.08
2018-09-08T07:26:03.238Z,56.78
2018-09-08T07:28:32.671Z,53.29
2018-09-08T07:31:01.612Z,54.41
2018-09-08T07:33:30.860Z,52.83
2018-09-08T07:35:59.636Z,54.39
2018-09-08T07:38:28.407Z,51.14
2018-09-08T07:40:57.235Z,49.76
2018-09-08T07:43:27.795Z,49.19
2018-09-08T07:45:56.727Z,47.90
2018-09-08T07:48:25.559Z,46.72
2018-09-08T07:50:54.433Z,48.49
2018-09-08T07:53:23.392Z,49.69
2018-09-08T07:55:52.079Z,49.00
2018-09-08T07:58:20.873Z,48.42
2018-09-08T08:00:49.741Z,49.68
2018-09-08T08:03:19.171Z,49.77
2018-09-08T08:05:48.080Z,48.93
2018-09-08T08:08:16.911Z,47.60
2018-09-08T08:10:45.732Z,47.62
2018-09-08T08:13:14.583Z,49.15
2018-09-08T08:15:44.261Z,49.16
2018-09-08T08:18:13.352Z,50.36
2018-09-08T08:20:42.132Z,53.56
2018-09-08T08:23:10.901Z,51.35
2018-09-08T08:25:39.802Z,51.63
2018-09-08T08:28:08.771Z,53.09
2018-09-08T08:30:43.933Z,54.56
2018-09-08T08:33:12.701Z,56.13
2018-09-08T08:35:41.533Z,54.79
2018-09-08T08:38:10.328Z,53.40
2018-09-08T08:40:39.246Z,55.49
2018-09-08T08:43:08.097Z,57.26
2018-09-08T08:45:36.868Z,58.07
2018-09-08T08:48:05.863Z,57.46
2018-09-08T08:50:45.737Z,56.26
2018-09-08T08:53:25.497Z,54.69
2018-09-08T08:55:54.374Z,58.76
2018-09-08T08:58:23.081Z,53.79
2018-09-08T09:00:52.006Z,53.67
2018-09-08T09:03:20.784Z,54.36
2018-09-08T09:05:49.566Z,52.41
2018-09-08T09:08:18.841Z,55.57
2018-09-08T09:10:47.234Z,54.33
2018-09-08T09:13:16.077Z,55.29
2018-09-08T09:15:44.928Z,52.65
2018-09-08T09:18:23.565Z,54.02
2018-09-08T09:21:03.439Z,53.31
2018-09-08T09:23:43.108Z,56.69
2018-09-08T09:26:11.872Z,54.09
2018-09-08T09:28:40.620Z,54.36
2018-09-08T09:31:09.497Z,54.46
2018-09-08T09:33:38.351Z,53.07
2018-09-08T09:36:07.315Z,53.85
2018-09-08T09:38:36.089Z,51.94
2018-09-08T09:41:04.847Z,53.91
2018-09-08T09:43:33.675Z,51.60
2018-09-08T09:46:02.424Z,51.04
2018-09-08T09:48:31.792Z,50.59
2018-09-08T09:51:00.594Z,48.61
2018-09-08T09:53:29.363Z,50.60
2018-09-08T09:55:58.124Z,50.24
2018-09-08T09:58:27.026Z,50.90
2018-09-08T10:01:01.430Z,51.38
2018-09-08T10:03:30.229Z,51.58
2018-09-08T10:05:59.058Z,52.39
2018-09-08T10:08:27.857Z,50.33
2018-09-08T10:10:56.601Z,49.67
2018-09-08T10:13:25.376Z,53.07
2018-09-08T10:15:54.341Z,52.71
2018-09-08T10:18:23.113Z,49.12
2018-09-08T10:20:51.990Z,51.46
2018-09-08T10:23:20.878Z,49.94
2018-09-08T10:25:49.603Z,53.40
2018-09-08T10:28:18.361Z,53.03
2018-09-08T10:30:47.205Z,53.12
2018-09-08T10:33:15.965Z,51.13
2018-09-08T10:35:44.748Z,49.88
2018-09-08T10:38:13.508Z,51.06
2018-09-08T10:40:42.374Z,52.78
2018-09-08T10:43:11.178Z,52.50
2018-09-08T10:45:40.057Z,53.58
2018-09-08T10:48:09.005Z,51.23
2018-09-08T10:50:37.788Z,53.11
2018-09-08T10:53:06.565Z,49.37
2018-09-08T10:55:35.356Z,52.06
2018-09-08T10:58:04.088Z,49.66
2018-09-08T11:00:33.389Z,50.91
2018-09-08T11:03:02.128Z,47.80
2018-09-08T11:05:30.900Z,48.92
2018-09-08T11:07:59.657Z,47.65
2018-09-08T11:10:28.457Z,49.07
2018-09-08T11:12:57.228Z,47.97
2018-09-08T11:15:26.232Z,45.57
2018-09-08T11:17:55.000Z,49.47
2018-09-08T11:20:23.759Z,48.90
2018-09-08T11:22:52.668Z,49.54
2018-09-08T11:25:21.403Z,50.90
2018-09-08T11:27:50.276Z,48.85
2018-09-08T11:30:19.252Z,48.23
2018-09-08T11:32:48.044Z,48.72
2018-09-08T11:35:16.952Z,51.02
2018-09-08T11:37:46.700Z,49.95
2018-09-08T11:40:16.376Z,48.61
2018-09-08T11:42:45.193Z,50.56
2018-09-08T11:45:14.231Z,48.01
2018-09-08T11:47:43.113Z,47.70
2018-09-08T11:50:11.920Z,50.59
2018-09-08T11:52:41.849Z,49.71
2018-09-08T11:55:12.911Z,51.17
2018-09-08T11:57:41.876Z,49.16
2018-09-08T12:00:10.853Z,52.04
2018-09-08T12:02:42.386Z,48.14
2018-09-08T12:05:12.017Z,47.49
2018-09-08T12:07:40.797Z,48.36
2018-09-08T12:10:10.925Z,49.77
2018-09-08T12:12:39.820Z,47.40
2018-09-08T12:15:08.668Z,46.97
2018-09-08T12:17:37.441Z,47.51
2018-09-08T12:20:06.244Z,48.26
2018-09-08T12:22:35.003Z,46.81
2018-09-08T12:25:03.768Z,49.87
2018-09-08T12:27:32.528Z,46.55
2018-09-08T12:30:01.440Z,43.91
2018-09-08T12:32:30.473Z,43.71
2018-09-08T12:34:59.190Z,43.74
2018-09-08T12:37:27.924Z,42.16
2018-09-08T12:39:56.697Z,41.61
2018-09-08T12:42:25.431Z,38.16
2018-09-08T12:44:54.192Z,40.16
2018-09-08T12:47:22.940Z,43.78
2018-09-08T12:49:51.733Z,43.52
2018-09-08T12:52:20.599Z,43.62
2018-09-08T12:54:49.452Z,44.92
2018-09-08T12:57:18.208Z,46.29
2018-09-08T12:59:47.165Z,44.27
2018-09-08T13:02:15.913Z,44.50
2018-09-08T13:04:44.669Z,46.83
2018-09-08T13:07:13.451Z,44.81
2018-09-08T13:09:42.217Z,45.32
2018-09-08T13:12:11.079Z,46.43
2018-09-08T13:14:39.832Z,43.61
2018-09-08T13:17:08.638Z,43.84
2018-09-08T13:19:37.493Z,44.21
2018-09-08T13:22:06.344Z,42.29
2018-09-08T13:24:35.171Z,43.86
2018-09-08T13:27:03.925Z,43.06
2018-09-08T13:29:32.701Z,42.40
2018-09-08T13:32:01.613Z,42.78
2018-09-08T13:34:30.457Z,43.41
2018-09-08T13:36:59.212Z,44.10
2018-09-08T13:39:28.105Z,44.39
2018-09-08T13:41:56.841Z,42.80
2018-09-08T13:44:25.572Z,43.99
2018-09-08T13:46:54.382Z,42.36
2018-09-08T13:49:23.180Z,44.81
2018-09-08T13:51:51.978Z,42.53
2018-09-08T13:54:20.846Z,42.84
2018-09-08T13:56:49.597Z,42.95
2018-09-08T13:59:18.337Z,46.17
2018-09-08T14:01:47.112Z,44.73
2018-09-08T14:04:15.984Z,48.13
2018-09-08T14:06:44.761Z,44.52
2018-09-08T14:09:13.519Z,44.27
2018-09-08T14:11:43.001Z,42.61
2018-09-08T14:14:11.840Z,45.68
2018-09-08T14:16:40.683Z,43.84
2018-09-08T14:19:09.492Z,44.99
2018-09-08T14:21:38.272Z,45.09
2018-09-08T14:24:07.112Z,44.97
2018-09-08T14:26:35.871Z,44.03
2018-09-08T14:29:04.656Z,43.16
2018-09-08T14:31:33.547Z,44.65
2018-09-08T14:34:02.366Z,41.86
2018-09-08T14:36:31.113Z,41.91
2018-09-08T14:38:59.880Z,39.83
2018-09-08T14:41:28.724Z,40.44
2018-09-08T14:43:57.641Z,42.14
2018-09-08T14:46:26.399Z,40.43
2018-09-08T14:48:55.279Z,43.76
2018-09-08T14:51:24.044Z,42.49
2018-09-08T14:53:52.787Z,42.02
2018-09-08T14:56:21.591Z,42.72
2018-09-08T14:58:50.725Z,44.84
2018-09-08T15:01:19.569Z,42.51
2018-09-08T15:03:48.523Z,40.28
2018-09-08T15:06:17.284Z,42.95
2018-09-08T15:08:46.069Z,45.11
2018-09-08T15:11:14.819Z,42.43
2018-09-08T15:13:43.560Z,41.55
2018-09-08T15:16:12.323Z,42.02
2018-09-08T15:18:41.185Z,42.99
2018-09-08T15:21:09.925Z,44.91
2018-09-08T15:23:38.689Z,43.30
2018-09-08T15:26:07.693Z,44.82
2018-09-08T15:28:36.492Z,44.30
2018-09-08T15:31:05.263Z,43.01
2018-09-08T15:33:34.035Z,44.46
2018-09-08T15:36:02.755Z,45.18
2018-09-08T15:38:31.583Z,44.68
2018-09-08T15:41:00.473Z,44.22
2018-09-08T15:43:29.456Z,44.41
2018-09-08T15:45:58.265Z,47.46
2018-09-08T15:48:26.998Z,43.63
2018-09-08T15:50:55.784Z,45.19
2018-09-08T15:53:24.672Z,45.75
2018-09-08T15:55:53.594Z,47.30
2018-09-08T15:58:22.397Z,45.17
2018-09-08T16:00:51.148Z,45.25
2018-09-08T16:03:19.914Z,46.47
2018-09-08T16:05:48.644Z,47.22
2018-09-08T16:08:17.508Z,44.42
2018-09-08T16:10:46.458Z,47.64
2018-09-08T16:13:15.236Z,45.32
2018-09-08T16:15:44.120Z,45.54
2018-09-08T16:18:12.991Z,45.91
2018-09-08T16:20:41.753Z,45.94
2018-09-08T16:23:10.537Z,46.07
2018-09-08T16:25:39.283Z,46.53
2018-09-08T16:28:08.051Z,46.03
2018-09-08T16:30:36.809Z,47.45
2018-09-08T16:33:05.662Z,49.03
2018-09-08T16:35:36.210Z,49.45
2018-09-08T16:38:04.984Z,47.71
2018-09-08T16:40:34.014Z,47.92
2018-09-08T16:43:02.763Z,49.23
2018-09-08T16:45:31.984Z,49.92
2018-09-08T16:48:00.805Z,49.81
2018-09-08T16:50:30.744Z,52.18
2018-09-08T16:52:59.489Z,50.14
2018-09-08T16:55:28.541Z,50.32
2018-09-08T16:57:57.526Z,50.73
2018-09-08T17:00:26.255Z,50.66
2018-09-08T17:02:55.036Z,50.85
2018-09-08T17:05:23.800Z,53.04
2018-09-08T17:07:52.573Z,55.69
2018-09-08T17:10:21.615Z,54.33
2018-09-08T17:12:50.540Z,56.46
2018-09-08T17:15:20.080Z,57.81
2018-09-08T17:17:48.817Z,57.44
2018-09-08T17:20:17.568Z,59.57
2018-09-08T17:22:46.319Z,59.02
2018-09-08T17:25:16.430Z,59.48
2018-09-08T17:27:45.528Z,57.89
2018-09-08T17:30:14.310Z,56.54
2018-09-08T17:32:43.181Z,57.26
2018-09-08T17:35:13.918Z,59.76
2018-09-08T17:37:43.027Z,58.74
2018-09-08T17:40:11.816Z,52.95
2018-09-08T17:42:40.565Z,56.63
2018-09-08T17:45:09.472Z,59.01
2018-09-08T17:47:38.347Z,58.61
2018-09-08T17:50:07.285Z,59.00
2018-09-08T17:52:36.153Z,58.18
2018-09-08T17:55:06.339Z,58.73
2018-09-08T17:57:35.128Z,59.31
2018-09-08T18:00:05.551Z,59.10
2018-09-08T18:02:34.353Z,59.68
2018-09-08T18:05:03.342Z,59.42
2018-09-08T18:07:32.117Z,60.98
2018-09-08T18:10:01.019Z,60.91
2018-09-08T18:12:29.962Z,63.02
2018-09-08T18:14:58.719Z,61.74
2018-09-08T18:17:27.506Z,62.14
2018-09-08T18:19:56.999Z,62.38
2018-09-08T18:22:26.040Z,62.73
2018-09-08T18:24:56.212Z,65.03
2018-09-08T18:27:25.027Z,64.57
2018-09-08T18:29:53.812Z,64.85
2018-09-08T18:32:22.633Z,66.26
2018-09-08T18:34:51.489Z,67.59
2018-09-08T18:37:20.259Z,69.55
2018-09-08T18:39:49.028Z,67.17
2018-09-08T18:42:17.800Z,67.04
2018-09-08T18:44:46.552Z,67.08
2018-09-08T18:47:15.335Z,69.19
2018-09-08T18:49:45.916Z,65.92
2018-09-08T18:52:16.225Z,68.78
2018-09-08T18:54:45.372Z,69.43
2018-09-08T18:57:14.189Z,68.13
2018-09-08T18:59:43.016Z,69.17
2018-09-08T19:02:11.864Z,67.79
2018-09-08T19:04:40.756Z,68.29
2018-09-08T19:07:11.119Z,69.78
2018-09-08T19:09:40.131Z,70.30
2018-09-08T19:12:08.931Z,69.68
2018-09-08T19:14:43.597Z,67.81
2018-09-08T19:17:12.441Z,68.76
2018-09-08T19:19:41.210Z,67.05
2018-09-08T19:22:11.419Z,67.46
2018-09-08T19:24:44.593Z,67.59
2018-09-08T19:27:14.116Z,65.00
2018-09-08T19:29:48.380Z,66.71
2018-09-08T19:32:18.054Z,67.79
2018-09-08T19:34:50.981Z,66.18
2018-09-08T19:37:21.549Z,64.39
2018-09-08T19:39:50.632Z,64.64
2018-09-08T19:42:22.435Z,64.84
2018-09-08T19:44:51.277Z,65.74
2018-09-08T19:47:25.145Z,65.12
2018-09-08T19:49:53.922Z,65.64
2018-09-08T19:52:28.115Z,65.11
2018-09-08T19:54:56.843Z,64.13
2018-09-08T19:57:30.782Z,63.72
2018-09-08T20:00:02.175Z,64.42
2018-09-08T20:02:30.981Z,64.46
2018-09-08T20:04:59.763Z,65.74
2018-09-08T20:07:28.620Z,65.41
2018-09-08T20:09:57.538Z,65.36
2018-09-08T20:12:27.549Z,64.91
2018-09-08T20:14:56.323Z,65.74
2018-09-08T20:17:25.084Z,66.12
2018-09-08T20:19:53.978Z,66.16
2018-09-08T20:22:22.741Z,65.48
2018-09-08T20:24:51.504Z,65.42
2018-09-08T20:27:21.234Z,66.21
2018-09-08T20:29:50.068Z,67.14
2018-09-08T20:32:20.103Z,67.35
2018-09-08T20:34:50.527Z,67.29
2018-09-08T20:37:20.429Z,68.29
2018-09-08T20:39:52.184Z,70.40
2018-09-08T20:42:22.269Z,72.63
2018-09-08T20:44:52.930Z,69.98
2018-09-08T20:47:23.288Z,68.38
2018-09-08T20:49:53.838Z,69.85
2018-09-08T20:52:24.275Z,70.65
2018-09-08T20:55:00.201Z,73.10
2018-09-08T20:57:31.037Z,72.26
2018-09-08T21:00:01.500Z,71.18
2018-09-08T21:02:30.860Z,72.07
2018-09-08T21:05:01.164Z,71.70
2018-09-08T21:07:31.324Z,71.60
2018-09-08T21:10:00.191Z,71.21
2018-09-08T21:12:29.004Z,73.20
2018-09-08T21:14:57.797Z,73.61
2018-09-08T21:17:26.721Z,75.26
2018-09-08T21:19:55.502Z,72.30
2018-09-08T21:22:24.266Z,71.85
2018-09-08T21:24:53.052Z,71.56
2018-09-08T21:27:21.867Z,71.72
2018-09-08T21:29:50.636Z,72.61
2018-09-08T21:32:19.498Z,72.85
2018-09-08T21:34:48.451Z,73.67
2018-09-08T21:37:17.233Z,74.53
2018-09-08T21:39:46.108Z,73.36
2018-09-08T21:42:14.864Z,73.77
2018-09-08T21:44:43.652Z,73.43
2018-09-08T21:47:12.432Z,74.66
2018-09-08T21:49:41.215Z,73.77
2018-09-08T21:52:10.814Z,76.15
2018-09-08T21:54:41.474Z,74.48
2018-09-08T21:57:10.319Z,74.70
2018-09-08T21:59:41.205Z,74.56
2018-09-08T22:02:11.376Z,74.03
2018-09-08T22:04:41.738Z,74.12
2018-09-08T22:07:10.716Z,74.55
2018-09-08T22:09:40.706Z,75.03
2018-09-08T22:12:11.704Z,74.91
2018-09-08T22:14:41.479Z,76.71
2018-09-08T22:17:10.324Z,76.88
2018-09-08T22:19:41.226Z,77.75
2018-09-08T22:22:10.141Z,77.83
2018-09-08T22:24:40.417Z,76.83
2018-09-08T22:27:10.612Z,76.91
2018-09-08T22:29:40.981Z,77.69
2018-09-08T22:32:10.192Z,76.38
2018-09-08T22:34:39.091Z,76.83
2018-09-08T22:37:08.221Z,76.16
2018-09-08T22:39:37.535Z,78.85
2018-09-08T22:42:06.308Z,78.64
2018-09-08T22:44:37.213Z,76.89
2018-09-08T22:47:08.121Z,76.49
2018-09-08T22:49:37.570Z,78.05
2018-09-08T22:52:07.731Z,79.07
2018-09-08T22:54:37.753Z,78.03
2018-09-08T22:57:06.946Z,76.27
2018-09-08T22:59:35.707Z,79.20
2018-09-08T23:02:04.460Z,77.46
2018-09-08T23:04:33.492Z,76.91
2018-09-08T23:07:04.436Z,78.64
2018-09-08T23:09:33.185Z,80.13
2018-09-08T23:12:01.957Z,80.20
2018-09-08T23:14:30.821Z,79.19
2018-09-08T23:17:00.002Z,79.41
2018-09-08T23:19:28.895Z,79.00
2018-09-08T23:21:59.244Z,78.33
2018-09-08T23:24:30.219Z,77.73
2018-09-08T23:27:00.742Z,76.75
2018-09-08T23:29:30.237Z,77.43
2018-09-08T23:31:59.015Z,78.99
2018-09-08T23:34:27.820Z,77.75
2018-09-08T23:36:57.728Z,78.98
2018-09-08T23:39:26.550Z,77.64
2018-09-08T23:41:55.387Z,77.16
2018-09-08T23:44:26.344Z,78.07
2018-09-08T23:46:56.189Z,78.50
2018-09-08T23:49:25.725Z,77.04
2018-09-08T23:51:55.325Z,77.69
2018-09-08T23:54:24.151Z,79.63
2018-09-08T23:56:52.987Z,79.21
2018-09-08T23:59:21.849Z,78.30
